createdAt,value
2019-06-20T00:01:58.570Z,22.60
2019-06-20T00:04:30.584Z,22.50
2019-06-20T00:07:02.552Z,22.50
2019-06-20T00:09:33.133Z,22.60
2019-06-20T00:12:03.626Z,22.50
2019-06-20T00:14:33.986Z,22.60
2019-06-20T00:17:04.816Z,22.50
2019-06-20T00:19:35.258Z,22.50
2019-06-20T00:22:05.835Z,22.40
2019-06-20T00:24:36.334Z,22.50
2019-06-20T00:27:06.801Z,22.50
2019-06-20T00:29:37.264Z,22.40
2019-06-20T00:32:07.759Z,22.40
2019-06-20T00:34:38.215Z,22.40
2019-06-20T00:37:08.608Z,22.50
2019-06-20T00:39:40.256Z,22.60
2019-06-20T00:42:10.720Z,22.50
2019-06-20T00:44:41.126Z,22.60
2019-06-20T00:47:11.573Z,22.70
2019-06-20T00:49:41.971Z,22.70
2019-06-20T00:52:13.556Z,22.70
2019-06-20T00:54:43.951Z,22.60
2019-06-20T00:57:14.418Z,22.70
2019-06-20T00:59:44.817Z,22.60
2019-06-20T01:02:15.286Z,22.40
2019-06-20T01:04:45.677Z,22.30
2019-06-20T01:07:17.331Z,22.20
2019-06-20T01:09:47.684Z,22.30
2019-06-20T01:12:18.119Z,22.20
2019-06-20T01:14:48.530Z,22.10
2019-06-20T01:17:18.945Z,22.10
2019-06-20T01:19:49.384Z,22.00
2019-06-20T01:22:19.848Z,21.90
2019-06-20T01:24:50.283Z,21.80
2019-06-20T01:27:21.095Z,22.10
2019-06-20T01:29:51.530Z,22.00
2019-06-20T01:32:21.971Z,22.00
2019-06-20T01:34:52.404Z,22.00
2019-06-20T01:37:22.828Z,22.00
2019-06-20T01:39:53.265Z,22.20
2019-06-20T01:42:23.697Z,22.20
2019-06-20T01:44:54.063Z,22.00
2019-06-20T01:47:24.488Z,22.00
2019-06-20T01:49:54.929Z,21.90
2019-06-20T01:52:25.341Z,21.80
2019-06-20T01:54:55.770Z,21.80
2019-06-20T01:57:26.202Z,21.70
2019-06-20T01:59:56.671Z,21.90
2019-06-20T02:02:27.113Z,22.10
2019-06-20T02:04:57.553Z,22.30
2019-06-20T02:07:28.340Z,22.40
2019-06-20T02:09:58.981Z,22.40
2019-06-20T02:12:29.400Z,22.10
2019-06-20T02:14:59.841Z,22.10
2019-06-20T02:17:30.268Z,22.10
2019-06-20T02:20:00.635Z,22.30
2019-06-20T02:22:31.047Z,22.40
2019-06-20T02:25:01.588Z,22.60
2019-06-20T02:27:32.097Z,22.60
2019-06-20T02:30:02.486Z,22.60
2019-06-20T02:32:34.365Z,22.60
2019-06-20T02:35:07.319Z,22.60
2019-06-20T02:37:37.701Z,22.60
2019-06-20T02:40:08.175Z,22.60
2019-06-20T02:42:38.604Z,22.30
2019-06-20T02:45:09.234Z,22.30
2019-06-20T02:47:39.597Z,22.30
2019-06-20T02:50:11.046Z,22.20
2019-06-20T02:52:41.825Z,22.00
2019-06-20T02:55:12.306Z,21.90
2019-06-20T02:57:43.129Z,21.90
2019-06-20T03:00:14.316Z,22.00
2019-06-20T03:02:44.727Z,21.90
2019-06-20T03:05:15.433Z,21.80
2019-06-20T03:07:45.795Z,21.70
2019-06-20T03:10:16.210Z,21.60
2019-06-20T03:12:46.629Z,21.80
2019-06-20T03:15:17.232Z,21.90
2019-06-20T03:17:47.650Z,21.80
2019-06-20T03:20:18.973Z,21.90
2019-06-20T03:22:49.352Z,22.10
2019-06-20T03:25:21.332Z,22.20
2019-06-20T03:27:52.779Z,22.10
2019-06-20T03:30:23.337Z,22.10
2019-06-20T03:32:53.723Z,21.90
2019-06-20T03:35:24.143Z,21.70
2019-06-20T03:37:54.505Z,21.60
2019-06-20T03:40:24.871Z,21.50
2019-06-20T03:42:55.294Z,21.60
2019-06-20T03:45:25.678Z,21.50
2019-06-20T03:47:56.056Z,21.50
2019-06-20T03:50:26.487Z,21.50
2019-06-20T03:53:02.893Z,21.60
2019-06-20T03:55:34.226Z,21.70
2019-06-20T03:58:05.385Z,21.70
2019-06-20T04:00:37.203Z,21.60
2019-06-20T04:03:07.565Z,21.50
2019-06-20T04:05:38.102Z,21.50
2019-06-20T04:08:08.566Z,21.70
2019-06-20T04:10:38.995Z,21.80
2019-06-20T04:13:09.374Z,22.00
2019-06-20T04:15:39.808Z,22.00
2019-06-20T04:18:10.219Z,22.10
2019-06-20T04:20:40.627Z,22.10
2019-06-20T04:23:11.082Z,22.20
2019-06-20T04:25:41.466Z,22.40
2019-06-20T04:28:11.905Z,22.60
2019-06-20T04:30:42.279Z,23.10
2019-06-20T04:33:12.691Z,23.50
2019-06-20T04:35:43.067Z,23.90
2019-06-20T04:38:13.504Z,24.40
2019-06-20T04:40:43.896Z,24.80
2019-06-20T04:43:14.321Z,25.20
2019-06-20T04:45:46.266Z,25.50
2019-06-20T04:48:16.702Z,25.70
2019-06-20T04:50:47.189Z,26.00
2019-06-20T04:53:17.607Z,26.10
2019-06-20T04:55:48.037Z,26.60
2019-06-20T04:58:18.442Z,26.70
2019-06-20T05:00:48.877Z,27.10
2019-06-20T05:03:19.243Z,27.00
2019-06-20T05:05:49.668Z,26.90
2019-06-20T05:08:20.015Z,27.10
2019-06-20T05:10:50.466Z,27.30
2019-06-20T05:13:20.975Z,27.50
2019-06-20T05:15:53.472Z,28.00
2019-06-20T05:18:24.258Z,28.60
2019-06-20T05:20:54.713Z,28.90
2019-06-20T05:23:25.070Z,29.40
2019-06-20T05:25:55.473Z,29.80
2019-06-20T05:28:25.856Z,29.80
2019-06-20T05:30:56.298Z,30.00
2019-06-20T05:33:26.728Z,29.70
2019-06-20T05:35:57.163Z,30.30
2019-06-20T05:38:27.741Z,30.30
2019-06-20T05:40:58.153Z,30.00
2019-06-20T05:43:28.610Z,29.90
2019-06-20T05:46:08.782Z,30.30
2019-06-20T05:48:31.052Z,30.00
2019-06-20T05:51:01.468Z,30.50
2019-06-20T05:53:31.911Z,30.60
2019-06-20T05:56:03.485Z,30.60
2019-06-20T05:58:33.915Z,30.80
2019-06-20T06:01:04.274Z,30.30
2019-06-20T06:03:34.719Z,30.90
2019-06-20T06:06:06.349Z,31.10
2019-06-20T06:08:36.853Z,31.30
2019-06-20T06:11:08.588Z,31.40
2019-06-20T06:13:38.996Z,31.60
2019-06-20T06:16:25.152Z,31.70
2019-06-20T06:18:41.445Z,31.70
2019-06-20T06:21:11.868Z,31.90
2019-06-20T06:23:42.289Z,31.20
2019-06-20T06:26:12.741Z,30.70
2019-06-20T06:28:43.164Z,30.50
2019-06-20T06:31:13.587Z,30.60
2019-06-20T06:33:44.022Z,30.70
2019-06-20T06:36:14.466Z,30.90
2019-06-20T06:38:44.904Z,30.70
2019-06-20T06:41:15.353Z,31.10
2019-06-20T06:43:45.787Z,31.90
2019-06-20T06:46:16.197Z,32.60
2019-06-20T06:48:46.553Z,32.40
2019-06-20T06:51:17.217Z,32.60
2019-06-20T06:53:47.580Z,33.00
2019-06-20T06:56:18.012Z,33.30
2019-06-20T06:58:48.392Z,33.30
2019-06-20T07:01:18.815Z,32.80
2019-06-20T07:03:49.197Z,33.30
2019-06-20T07:06:19.621Z,32.80
2019-06-20T07:08:49.997Z,32.40
2019-06-20T07:11:20.504Z,32.60
2019-06-20T07:13:51.138Z,32.40
2019-06-20T07:16:21.540Z,32.60
2019-06-20T07:18:53.392Z,32.30
2019-06-20T07:21:23.781Z,32.60
2019-06-20T07:23:54.017Z,32.80
2019-06-20T07:26:24.450Z,32.70
2019-06-20T07:28:54.818Z,32.70
2019-06-20T07:31:25.343Z,32.80
2019-06-20T07:33:55.689Z,32.90
2019-06-20T07:36:27.722Z,32.50
2019-06-20T07:38:58.085Z,32.30
2019-06-20T07:41:28.513Z,32.70
2019-06-20T07:43:58.892Z,32.70
2019-06-20T07:46:30.999Z,32.20
2019-06-20T07:49:02.003Z,32.10
2019-06-20T07:51:32.624Z,32.90
2019-06-20T07:54:03.062Z,33.60
2019-06-20T07:56:33.473Z,33.70
2019-06-20T07:59:04.154Z,33.80
2019-06-20T08:01:34.601Z,33.30
2019-06-20T08:04:05.647Z,32.90
2019-06-20T08:06:36.090Z,32.90
2019-06-20T08:09:08.827Z,33.20
2019-06-20T08:11:39.267Z,32.60
2019-06-20T08:14:13.540Z,32.70
2019-06-20T08:16:46.435Z,33.40
2019-06-20T08:19:19.594Z,33.70
2019-06-20T08:21:51.515Z,33.20
2019-06-20T08:24:28.368Z,32.80
2019-06-20T08:27:03.080Z,33.40
2019-06-20T08:29:41.418Z,32.80
2019-06-20T08:32:28.176Z,32.10
2019-06-20T08:35:04.436Z,32.40
2019-06-20T08:37:37.108Z,32.30
2019-06-20T08:40:09.675Z,32.40
2019-06-20T08:42:52.758Z,31.80
2019-06-20T08:45:28.745Z,31.00
2019-06-20T08:48:00.715Z,30.40
2019-06-20T08:50:31.870Z,31.30
2019-06-20T08:53:03.325Z,31.70
2019-06-20T08:55:34.792Z,31.40
2019-06-20T08:58:05.816Z,31.40
2019-06-20T09:00:38.215Z,31.00
2019-06-20T09:03:09.386Z,31.60
2019-06-20T09:05:40.522Z,31.70
2019-06-20T09:08:18.275Z,31.40
2019-06-20T09:10:48.686Z,31.30
2019-06-20T09:13:19.181Z,31.40
2019-06-20T09:15:49.634Z,31.70
2019-06-20T09:18:19.990Z,31.80
2019-06-20T09:20:52.736Z,31.70
2019-06-20T09:23:27.534Z,31.80
2019-06-20T09:25:58.047Z,31.70
2019-06-20T09:28:28.473Z,31.80
2019-06-20T09:30:59.259Z,31.10
2019-06-20T09:33:32.578Z,31.20
2019-06-20T09:36:04.028Z,31.40
2019-06-20T09:38:34.541Z,31.50
2019-06-20T09:41:05.045Z,31.20
2019-06-20T09:43:35.425Z,31.40
2019-06-20T09:46:05.837Z,31.50
2019-06-20T09:48:36.249Z,31.60
2019-06-20T09:51:06.695Z,31.60
2019-06-20T09:53:38.028Z,31.30
2019-06-20T09:56:08.448Z,31.30
2019-06-20T09:58:38.879Z,31.30
2019-06-20T10:01:09.415Z,31.30
2019-06-20T10:03:39.832Z,31.50
2019-06-20T10:06:13.867Z,31.40
2019-06-20T10:08:42.419Z,31.30
2019-06-20T10:11:12.785Z,31.40
2019-06-20T10:13:43.186Z,31.60
2019-06-20T10:16:13.563Z,31.80
2019-06-20T10:18:43.985Z,31.90
2019-06-20T10:21:14.352Z,32.00
2019-06-20T10:23:46.056Z,31.90
2019-06-20T10:26:16.085Z,31.90
2019-06-20T10:28:47.565Z,31.80
2019-06-20T10:31:18.501Z,31.80
2019-06-20T10:33:48.939Z,31.80
2019-06-20T10:36:19.306Z,31.80
2019-06-20T10:38:52.623Z,31.90
2019-06-20T10:41:23.190Z,31.50
2019-06-20T10:43:53.611Z,31.60
2019-06-20T10:46:24.041Z,31.40
2019-06-20T10:48:54.460Z,31.60
2019-06-20T10:51:42.484Z,31.60
2019-06-20T10:54:13.548Z,31.70
2019-06-20T10:56:45.423Z,31.60
2019-06-20T10:59:16.325Z,31.90
2019-06-20T11:01:46.814Z,32.10
2019-06-20T11:04:17.212Z,31.80
2019-06-20T11:06:47.720Z,31.80
2019-06-20T11:09:18.098Z,31.70
2019-06-20T11:11:49.070Z,31.70
2019-06-20T11:14:19.862Z,31.60
2019-06-20T11:16:50.337Z,31.30
2019-06-20T11:19:23.852Z,31.50
2019-06-20T11:21:54.270Z,31.70
2019-06-20T11:24:24.654Z,32.00
2019-06-20T11:26:55.057Z,31.80
2019-06-20T11:29:25.594Z,31.90
2019-06-20T11:31:55.967Z,31.90
2019-06-20T11:34:26.394Z,32.10
2019-06-20T11:36:56.776Z,31.90
2019-06-20T11:39:27.205Z,32.00
2019-06-20T11:41:57.576Z,32.20
2019-06-20T11:44:28.012Z,32.30
2019-06-20T11:46:58.470Z,31.90
2019-06-20T11:49:28.900Z,31.80
2019-06-20T11:51:59.299Z,31.70
2019-06-20T11:54:29.787Z,31.80
2019-06-20T11:57:00.168Z,31.90
2019-06-20T11:59:30.612Z,31.60
2019-06-20T12:02:01.045Z,31.80
2019-06-20T12:04:31.466Z,31.80
2019-06-20T12:07:01.908Z,32.00
2019-06-20T12:09:32.344Z,32.10
2019-06-20T12:12:02.721Z,32.20
2019-06-20T12:14:33.245Z,32.30
2019-06-20T12:17:03.720Z,32.60
2019-06-20T12:19:34.131Z,32.60
2019-06-20T12:22:04.966Z,32.10
2019-06-20T12:24:35.439Z,31.90
2019-06-20T12:27:05.954Z,32.20
2019-06-20T12:29:36.362Z,32.40
2019-06-20T12:32:09.883Z,32.40
2019-06-20T12:34:40.177Z,32.40
2019-06-20T12:37:10.945Z,32.20
2019-06-20T12:39:42.303Z,32.00
2019-06-20T12:42:12.952Z,31.90
2019-06-20T12:44:44.209Z,32.00
2019-06-20T12:47:14.925Z,32.00
2019-06-20T12:49:45.873Z,32.10
2019-06-20T12:52:17.590Z,32.30
2019-06-20T12:54:49.147Z,32.10
2019-06-20T12:57:19.842Z,32.10
2019-06-20T12:59:50.361Z,32.20
2019-06-20T13:02:20.725Z,32.00
2019-06-20T13:04:51.164Z,32.10
2019-06-20T13:07:21.536Z,32.10
2019-06-20T13:09:52.472Z,32.40
2019-06-20T13:12:22.833Z,32.50
2019-06-20T13:14:53.272Z,32.50
2019-06-20T13:17:23.648Z,32.40
2019-06-20T13:19:54.062Z,32.00
2019-06-20T13:22:24.718Z,31.90
2019-06-20T13:24:55.229Z,32.10
2019-06-20T13:27:25.652Z,32.50
2019-06-20T13:29:56.085Z,32.70
2019-06-20T13:32:26.503Z,32.70
2019-06-20T13:34:56.916Z,32.10
2019-06-20T13:37:27.328Z,31.90
2019-06-20T13:39:57.744Z,32.10
2019-06-20T13:42:28.150Z,32.10
2019-06-20T13:44:58.582Z,32.00
2019-06-20T13:47:29.008Z,31.60
2019-06-20T13:49:59.367Z,31.50
2019-06-20T13:52:29.798Z,31.80
2019-06-20T13:55:00.164Z,31.90
2019-06-20T13:57:30.590Z,32.30
2019-06-20T14:00:00.974Z,32.20
2019-06-20T14:02:32.697Z,32.00
2019-06-20T14:05:03.199Z,32.10
2019-06-20T14:07:33.556Z,32.40
2019-06-20T14:10:07.578Z,32.60
2019-06-20T14:12:38.019Z,32.50
2019-06-20T14:15:09.236Z,32.40
2019-06-20T14:17:41.482Z,32.20
2019-06-20T14:20:11.036Z,32.20
2019-06-20T14:22:41.391Z,32.20
2019-06-20T14:25:12.707Z,32.10
2019-06-20T14:27:43.994Z,32.10
2019-06-20T14:30:14.387Z,32.30
2019-06-20T14:32:44.638Z,32.30
2019-06-20T14:35:15.697Z,32.60
2019-06-20T14:37:47.331Z,32.20
2019-06-20T14:40:18.289Z,32.30
2019-06-20T14:42:50.260Z,32.40
2019-06-20T14:45:21.170Z,32.40
2019-06-20T14:47:52.683Z,32.50
2019-06-20T14:50:23.572Z,32.60
2019-06-20T14:52:55.252Z,32.40
2019-06-20T14:55:25.647Z,32.30
2019-06-20T14:57:56.145Z,32.40
2019-06-20T15:00:27.674Z,32.50
2019-06-20T15:02:58.816Z,32.70
2019-06-20T15:05:29.448Z,32.70
2019-06-20T15:07:59.847Z,32.40
2019-06-20T15:10:30.349Z,32.40
2019-06-20T15:13:00.709Z,32.60
2019-06-20T15:15:31.659Z,32.60
2019-06-20T15:18:02.305Z,32.40
2019-06-20T15:20:32.796Z,32.70
2019-06-20T15:23:03.210Z,32.80
2019-06-20T15:25:33.869Z,32.70
2019-06-20T15:28:04.264Z,32.70
2019-06-20T15:30:34.933Z,32.40
2019-06-20T15:33:10.099Z,32.60
2019-06-20T15:35:38.517Z,32.70
2019-06-20T15:38:08.885Z,32.90
2019-06-20T15:40:39.836Z,32.60
2019-06-20T15:43:10.173Z,32.50
2019-06-20T15:45:40.623Z,32.40
2019-06-20T15:48:11.072Z,32.50
2019-06-20T15:50:41.475Z,32.60
2019-06-20T15:53:11.848Z,32.60
2019-06-20T15:55:42.289Z,32.50
2019-06-20T15:58:12.727Z,32.60
2019-06-20T16:00:43.147Z,32.40
2019-06-20T16:03:14.607Z,32.00
2019-06-20T16:05:45.440Z,31.90
2019-06-20T16:08:15.867Z,31.90
2019-06-20T16:10:46.239Z,32.10
2019-06-20T16:13:17.242Z,31.90
2019-06-20T16:15:48.951Z,31.90
2019-06-20T16:18:19.401Z,32.10
2019-06-20T16:20:54.258Z,32.20
2019-06-20T16:23:26.241Z,32.20
2019-06-20T16:25:56.674Z,32.20
2019-06-20T16:28:27.018Z,32.00
2019-06-20T16:31:08.363Z,31.80
2019-06-20T16:33:28.591Z,32.00
2019-06-20T16:36:03.900Z,32.00
2019-06-20T16:38:35.908Z,31.90
2019-06-20T16:41:07.141Z,31.80
2019-06-20T16:43:37.516Z,31.90
2019-06-20T16:46:07.939Z,32.20
2019-06-20T16:48:38.470Z,32.40
2019-06-20T16:51:08.823Z,32.20
2019-06-20T16:53:39.344Z,32.40
2019-06-20T16:56:09.718Z,32.50
2019-06-20T16:58:40.170Z,32.70
2019-06-20T17:01:13.589Z,32.50
2019-06-20T17:03:45.501Z,32.40
2019-06-20T17:06:15.958Z,32.30
2019-06-20T17:08:47.926Z,32.50
2019-06-20T17:11:17.453Z,32.40
2019-06-20T17:13:47.710Z,32.20
2019-06-20T17:16:18.125Z,32.10
2019-06-20T17:18:48.543Z,32.10
2019-06-20T17:21:18.909Z,32.20
2019-06-20T17:23:49.315Z,32.10
2019-06-20T17:26:19.661Z,31.90
2019-06-20T17:28:50.102Z,31.90
2019-06-20T17:31:20.700Z,32.10
2019-06-20T17:33:57.602Z,32.20
2019-06-20T17:36:23.151Z,31.90
2019-06-20T17:38:53.571Z,31.70
2019-06-20T17:41:23.978Z,31.40
2019-06-20T17:43:54.394Z,31.60
2019-06-20T17:46:24.831Z,31.60
2019-06-20T17:48:55.245Z,31.50
2019-06-20T17:51:25.646Z,31.40
2019-06-20T17:53:56.078Z,31.40
2019-06-20T17:56:26.437Z,31.40
2019-06-20T17:58:56.865Z,31.10
2019-06-20T18:01:27.237Z,30.90
2019-06-20T18:04:12.630Z,30.90
2019-06-20T18:06:28.771Z,31.10
2019-06-20T18:08:59.039Z,31.30
2019-06-20T18:11:29.486Z,31.00
2019-06-20T18:13:59.925Z,30.90
2019-06-20T18:16:30.285Z,31.00
2019-06-20T18:19:00.742Z,30.90
2019-06-20T18:21:31.089Z,30.40
2019-06-20T18:24:01.502Z,30.10
2019-06-20T18:26:31.912Z,29.90
2019-06-20T18:29:02.362Z,29.80
2019-06-20T18:31:32.860Z,29.80
2019-06-20T18:34:03.393Z,29.60
2019-06-20T18:36:33.928Z,29.30
2019-06-20T18:39:05.742Z,29.10
2019-06-20T18:41:37.773Z,29.20
2019-06-20T18:44:08.145Z,29.10
2019-06-20T18:46:38.611Z,28.90
2019-06-20T18:49:09.079Z,28.60
2019-06-20T18:51:39.506Z,28.60
2019-06-20T18:54:09.926Z,28.60
2019-06-20T18:56:41.544Z,28.50
2019-06-20T18:59:12.053Z,28.10
2019-06-20T19:01:42.478Z,27.90
2019-06-20T19:04:12.873Z,27.90
2019-06-20T19:06:43.323Z,27.90
2019-06-20T19:09:13.727Z,27.50
2019-06-20T19:11:44.154Z,27.40
2019-06-20T19:14:14.604Z,27.10
2019-06-20T19:16:45.004Z,27.00
2019-06-20T19:19:15.534Z,26.50
2019-06-20T19:21:45.970Z,26.00
2019-06-20T19:24:17.628Z,25.70
2019-06-20T19:26:48.074Z,25.40
2019-06-20T19:29:18.441Z,25.00
2019-06-20T19:31:48.896Z,24.90
2019-06-20T19:34:19.404Z,25.30
2019-06-20T19:36:49.885Z,25.00
2019-06-20T19:39:20.311Z,24.70
2019-06-20T19:41:50.665Z,24.50
2019-06-20T19:44:21.109Z,24.40
2019-06-20T19:46:51.465Z,24.10
2019-06-20T19:49:21.881Z,24.10
2019-06-20T19:51:52.358Z,23.90
2019-06-20T19:54:22.759Z,23.90
2019-06-20T19:56:53.169Z,23.90
2019-06-20T19:59:23.651Z,23.80
2019-06-20T20:01:54.097Z,23.60
2019-06-20T20:04:24.482Z,23.40
2019-06-20T20:06:54.905Z,23.20
2019-06-20T20:09:25.286Z,23.00
2019-06-20T20:11:55.728Z,22.90
2019-06-20T20:14:26.083Z,22.80
2019-06-20T20:16:56.501Z,22.70
2019-06-20T20:19:26.898Z,22.60
2019-06-20T20:21:57.330Z,22.50
2019-06-20T20:24:27.765Z,22.50
2019-06-20T20:26:58.118Z,22.50
2019-06-20T20:29:28.535Z,22.40
2019-06-20T20:31:58.951Z,22.40
2019-06-20T20:34:29.416Z,22.40
2019-06-20T20:36:59.851Z,22.60
2019-06-20T20:39:30.279Z,23.10
2019-06-20T20:42:00.695Z,23.40
2019-06-20T20:44:31.096Z,23.60
2019-06-20T20:47:01.465Z,23.90
2019-06-20T20:49:31.872Z,24.10
2019-06-20T20:52:02.236Z,24.20
2019-06-20T20:54:32.731Z,24.20
2019-06-20T20:57:03.314Z,24.20
2019-06-20T20:59:34.054Z,23.70
2019-06-20T21:02:04.457Z,23.60
2019-06-20T21:04:34.837Z,23.40
2019-06-20T21:07:05.253Z,23.20
2019-06-20T21:09:35.624Z,23.10
2019-06-20T21:12:06.046Z,23.10
2019-06-20T21:14:36.435Z,23.40
2019-06-20T21:17:07.051Z,23.90
2019-06-20T21:19:37.431Z,24.10
2019-06-20T21:22:07.953Z,23.90
2019-06-20T21:24:38.350Z,23.90
2019-06-20T21:27:08.821Z,23.70
2019-06-20T21:29:39.199Z,23.50
2019-06-20T21:32:09.628Z,23.40
2019-06-20T21:34:39.984Z,23.60
2019-06-20T21:37:10.425Z,23.60
2019-06-20T21:39:40.792Z,23.60
2019-06-20T21:42:11.225Z,24.00
2019-06-20T21:44:41.654Z,23.90
2019-06-20T21:47:12.215Z,23.90
2019-06-20T21:49:42.703Z,24.10
2019-06-20T21:52:13.126Z,24.20
2019-06-20T21:54:43.564Z,24.30
2019-06-20T21:57:13.910Z,24.30
2019-06-20T21:59:44.336Z,24.30
2019-06-20T22:02:14.692Z,24.30
2019-06-20T22:04:54.022Z,24.30
2019-06-20T22:07:17.117Z,24.40
2019-06-20T22:09:47.546Z,24.20
2019-06-20T22:12:17.918Z,24.20
2019-06-20T22:14:48.354Z,24.20
2019-06-20T22:17:18.697Z,23.90
2019-06-20T22:19:49.112Z,23.60
2019-06-20T22:22:20.565Z,23.40
2019-06-20T22:24:51.001Z,23.00
2019-06-20T22:27:21.372Z,22.80
2019-06-20T22:29:51.780Z,22.60
2019-06-20T22:32:22.182Z,22.50
2019-06-20T22:34:52.551Z,22.50
2019-06-20T22:37:22.973Z,22.60
2019-06-20T22:39:53.391Z,22.60
2019-06-20T22:42:23.819Z,22.60
2019-06-20T22:44:54.246Z,22.70
2019-06-20T22:47:24.675Z,22.80
2019-06-20T22:49:55.092Z,22.70
2019-06-20T22:52:25.539Z,22.60
2019-06-20T22:54:55.961Z,22.70
2019-06-20T22:57:26.388Z,22.80
2019-06-20T22:59:56.770Z,22.80
2019-06-20T23:02:27.161Z,22.80
2019-06-20T23:04:57.538Z,22.70
2019-06-20T23:07:27.945Z,22.70
2019-06-20T23:10:09.902Z,22.70
2019-06-20T23:12:30.411Z,22.60
2019-06-20T23:15:00.841Z,22.40
2019-06-20T23:17:31.274Z,22.20
2019-06-20T23:20:01.710Z,22.10
2019-06-20T23:22:32.227Z,22.00
2019-06-20T23:25:02.609Z,22.00
2019-06-20T23:27:34.035Z,22.10
2019-06-20T23:30:07.174Z,22.20
2019-06-20T23:32:37.580Z,22.30
2019-06-20T23:35:08.562Z,22.20
2019-06-20T23:37:39.093Z,22.20
2019-06-20T23:40:10.549Z,22.20
2019-06-20T23:42:41.006Z,22.20
2019-06-20T23:45:12.845Z,22.20
2019-06-20T23:47:43.285Z,22.10
2019-06-20T23:50:19.774Z,22.20
2019-06-20T23:52:58.302Z,22.30
2019-06-20T23:55:28.845Z,22.20
2019-06-20T23:57:59.235Z,22.10
